KSO weather

Kastoria National Airport
Kastoria, Kastoria, Greece

Public forecast

Using degrees Celsius for public forecast. Weather courtesy of forecast.io.

METAR (pilot weather report)

Closest report is Filippos Airport, 27.3 nm (50.6 km) ESE. Retrieved 2019/08/23 09:50 UTC (56 minutes ago):

LGKZ 230950Z 10005KT 9999 FEW025 SCT070 31/10 Q1023

TAF (pilot weather forecast)

Closest forecast is Ohrid St. Paul the Apostle Airport, 50.4 nm (93.4 km) NNW. Retrieved 2019/08/23 09:33 UTC (1 hour ago):

TAF TAF LWOH 230830Z 2309/2409 16008KT CAVOK